Carnival Victory — 3FFL8 — position and weather

sailwx.info

Track history (hours):
 
Tides and Currents Weather Stations Pressure Air Temp Water Temp Dewpoint Dewpoint Depression Visibility Wind Speed Wind Dir Waves Ship Positions

Carnival Victory

Operator: Carnival Cruise Lines

Last reported at 2018-Feb-24 06:00 UTC. Time now 2018-Feb-24 12:16 UTC.
Position N 26°06' W 078°18'.

Type: Passenger vessel. MMSI: 355263000.

Wind from 130 at 20 knots

Barometer 1022.8 mb
Air temperature 25.0 ° C
Visibility: greater than 10.8 NM
Dewpoint 20.7 ° C
Water temperature 26.0 ° C

Date/timePositionNaut miles runAvg speedWind from/ knotsBaromVisibWave heightAir tempDewpointWater temp
2018-Feb-24 06:00N 26°06' W 078°18'4522.4 130 / 201022.810.8 25.020.726.0
2018-Feb-24 04:00N 26°18' W 079°06'1 0.8 070 / 201025.810.8 24.019.626.0
2018-Feb-24 02:54N 26°18' W 079°07'512.7
2018-Feb-24 02:30N 26°16' W 079°12'613.1
2018-Feb-24 02:01N 26°12' W 079°18'713.7
2018-Feb-24 01:30N 26°09' W 079°24'713.8
2018-Feb-24 01:00N 26°05' W 079°31'713.9
2018-Feb-24 00:30N 26°02' W 079°38'1514.5
2018-Feb-23 23:30N 25°54' W 079°52'815.2
2018-Feb-23 23:00N 25°49' W 079°58'612.7
2018-Feb-23 22:30N 25°45' W 080°03'5 9.4
2018-Feb-23 22:00N 25°46' W 080°09'1 2.6
2018-Feb-23 21:26N 25°47' W 080°10'0 0.0
2018-Feb-23 20:59N 25°47' W 080°10'0 0.0
2018-Feb-23 20:26N 25°47' W 080°10'0 0.0
2018-Feb-23 19:59N 25°47' W 080°10'0 0.0
2018-Feb-23 19:29N 25°47' W 080°10'0 0.0
2018-Feb-23 18:59N 25°47' W 080°10'0 0.0
2018-Feb-23 18:29N 25°47' W 080°10'0 0.0
2018-Feb-23 17:59N 25°47' W 080°10'0 0.0
2018-Feb-23 17:29N 25°47' W 080°10'0 0.0
2018-Feb-23 16:59N 25°47' W 080°10'0 0.0
2018-Feb-23 16:29N 25°47' W 080°10'0 0.0
2018-Feb-23 15:56N 25°47' W 080°10'0 0.0
2018-Feb-23 15:29N 25°47' W 080°10'0 0.0
2018-Feb-23 14:59N 25°47' W 080°10'0 0.0
2018-Feb-23 14:29N 25°47' W 080°10'0 0.0
2018-Feb-23 13:59N 25°47' W 080°10'0 0.0
2018-Feb-23 13:29N 25°47' W 080°10'0 0.0
2018-Feb-23 12:56N 25°47' W 080°10'0 0.0
2018-Feb-23 12:29N 25°47' W 080°10'0 0.0
2018-Feb-23 12:00N 25°47' W 080°10'1 1.4
2018-Feb-23 11:30N 25°47' W 080°11'3 5.7
2018-Feb-23 11:00N 25°46' W 080°08'611.5
2018-Feb-23 10:31N 25°47' W 080°02'5 9.2
2018-Feb-23 10:00N 25°44' W 079°58'611.1
2018-Feb-23 09:30N 25°39' W 079°55'611.4
2018-Feb-23 09:00N 25°34' W 079°55'611.4
2018-Feb-23 08:30N 25°28' W 079°54'3422.7
2018-Feb-23 07:00N 24°54' W 080°00'6917.2 090 / 251022.810.8 23.018.524.0
2018-Feb-23 03:00N 24°06' W 080°54'5518.3 100 / 301025.8 5.4 25.020.727.0
2018-Feb-23 00:00N 23°42' W 081°48'9816.4 080 / 301022.810.8 25.020.727.0
2018-Feb-22 18:00N 23°12' W 083°30'11516.4 050 / 251021.810.8 25.020.724.0
2018-Feb-22 11:00N 22°06' W 085°12'25764.2 080 / 251021.710.8 22.019.020.0
2018-Feb-22 07:00N 26°18' W 086°06'341110.5 050 / 251021.8 5.4 25.020.726.0
2018-Feb-22 03:55N 20°40' W 086°53'818.8
2018-Feb-22 03:30N 20°35' W 086°59'612.4
2018-Feb-22 03:00N 20°29' W 086°59'0 0.0
2018-Feb-22 02:29N 20°29' W 086°59'0 0.0
2018-Feb-22 01:59N 20°29' W 086°59'0 0.0
2018-Feb-22 01:29N 20°29' W 086°59'0 0.0
2018-Feb-22 00:59N 20°29' W 086°59'0 0.0
2018-Feb-22 00:29N 20°29' W 086°59'0 0.0
2018-Feb-21 23:59N 20°29' W 086°59'0 0.0
2018-Feb-21 23:29N 20°29' W 086°59'0 0.0
2018-Feb-21 22:59N 20°29' W 086°59'0 0.0
2018-Feb-21 22:29N 20°29' W 086°59'0 0.0
2018-Feb-21 21:56N 20°29' W 086°59'0 0.0
2018-Feb-21 21:20N 20°29' W 086°59'0 0.0
2018-Feb-21 20:56N 20°29' W 086°59'0 0.0
2018-Feb-21 20:29N 20°29' W 086°59'0 0.0
2018-Feb-21 19:59N 20°29' W 086°59'0 0.0
2018-Feb-21 19:29N 20°29' W 086°59'0 0.0
2018-Feb-21 18:56N 20°29' W 086°59'0 0.0
2018-Feb-21 18:26N 20°29' W 086°59'0 0.0
2018-Feb-21 18:00N 20°29' W 086°59'0 0.0
2018-Feb-21 17:30N 20°29' W 086°59'0 0.0
2018-Feb-21 17:00N 20°29' W 086°59'0 0.0
2018-Feb-21 16:30N 20°29' W 086°59'2 4.7
2018-Feb-21 16:00N 20°31' W 086°60'510.1
2018-Feb-21 15:30N 20°36' W 086°58'8218.1
2018-Feb-21 11:00N 21°24' W 085°48'10320.5 090 / 301021.510.8 24.016.320.0
2018-Feb-21 06:00N 22°42' W 084°36'7424.6 090 / 201022.810.8 24.021.125.0
2018-Feb-21 03:00N 23°24' W 083°30'4511.3 090 / 281023.7 5.4 25.020.726.6
2018-Feb-20 23:00N 23°48' W 082°48'133 7.8 090 / 301022.710.8 26.023.227.0
2018-Feb-20 06:00N 24°30' W 080°30'3712.4 050 / 201017.810.8 24.021.124.0
2018-Feb-20 03:00N 24°48' W 079°54'2317.8 100 / 401023.7 5.4 24.021.126.0
2018-Feb-20 01:41N 25°11' W 079°50'314.0
2018-Feb-20 01:30N 25°13' W 079°50'713.7
2018-Feb-20 01:00N 25°20' W 079°48'713.6
2018-Feb-20 00:30N 25°27' W 079°48'713.6
2018-Feb-20 00:00N 25°34' W 079°48'613.0
2018-Feb-19 23:30N 25°39' W 079°51'714.6
2018-Feb-19 23:00N 25°43' W 079°58'611.8
2018-Feb-19 22:30N 25°46' W 080°04'5 9.8
2018-Feb-19 22:00N 25°46' W 080°10'0 0.7
2018-Feb-19 21:23N 25°47' W 080°10'0 0.0
2018-Feb-19 20:59N 25°47' W 080°10'0 0.0
2018-Feb-19 20:29N 25°47' W 080°10'0 0.0
2018-Feb-19 19:59N 25°47' W 080°10'0 0.0
2018-Feb-19 19:29N 25°47' W 080°10'0 0.0
2018-Feb-19 18:59N 25°47' W 080°10'0 0.0
2018-Feb-19 18:29N 25°47' W 080°10'0 0.0
2018-Feb-19 17:59N 25°47' W 080°10'0 0.0
2018-Feb-19 17:29N 25°47' W 080°10'0 0.0
2018-Feb-19 16:59N 25°47' W 080°10'0 0.0
2018-Feb-19 16:29N 25°47' W 080°10'0 0.0
2018-Feb-19 15:59N 25°47' W 080°10'0 0.1
2018-Feb-19 15:29N 25°47' W 080°10'0 0.1
2018-Feb-19 14:59N 25°47' W 080°10'0 0.0
2018-Feb-19 14:29N 25°47' W 080°10'0 0.0
2018-Feb-19 13:59N 25°47' W 080°10'0 0.0
2018-Feb-19 13:29N 25°47' W 080°10'0 0.0
2018-Feb-19 12:59N 25°47' W 080°10'0 0.0
2018-Feb-19 12:29N 25°47' W 080°10'0 0.0
2018-Feb-19 12:00N 25°47' W 080°10'1 1.6
2018-Feb-19 11:30N 25°47' W 080°11'3 5.4
2018-Feb-19 11:01N 25°46' W 080°08'5 9.7
2018-Feb-19 10:31N 25°46' W 080°03'4 7.5
2018-Feb-19 10:00N 25°48' W 079°59'4 7.6
2018-Feb-19 09:31N 25°49' W 079°55'4 8.8
2018-Feb-19 09:01N 25°51' W 079°51'5 9.3
2018-Feb-19 08:30N 25°53' W 079°46'5 9.3
2018-Feb-19 08:00N 25°55' W 079°41'5 9.2
2018-Feb-19 07:31N 25°58' W 079°37'5 9.4
2018-Feb-19 07:00N 26°02' W 079°34'4 9.3
2018-Feb-19 06:31N 26°05' W 079°32'5 9.1
2018-Feb-19 06:01N 26°09' W 079°29'6334.0
2018-Feb-19 06:00N 26°06' W 079°24'815.5 050 / 201020.810.8 22.019.024.0
2018-Feb-19 05:31N 26°13' W 079°26'5 9.6
2018-Feb-19 05:00N 26°17' W 079°23'4 8.5
2018-Feb-19 04:30N 26°19' W 079°19'1711.2
2018-Feb-19 03:00N 26°18' W 079°00'121 7.1 070 / 171020.710.8 24.021.125.0
2018-Feb-18 10:00N 25°00' W 077°18'25 1.1 060 / 81024.810.8 24.018.024.0
2018-Feb-17 12:00N 25°24' W 077°24'7712.9 020 / 201022.810.8 24.018.025.0
2018-Feb-17 06:00N 26°06' W 078°36'3021.0 150 / 201021.810.8 22.019.025.0
2018-Feb-17 04:35N 26°18' W 079°06'217.9
2018-Feb-17 04:28N 26°18' W 079°08'2656.0
2018-Feb-17 04:00N 26°00' W 079°30'17287.0 120 / 111023.7 5.4 22.019.026.0
2018-Feb-17 03:56N 26°13' W 079°17'818.5
2018-Feb-17 03:30N 26°08' W 079°25'918.8
2018-Feb-17 03:00N 26°03' W 079°34'918.5
2018-Feb-17 02:30N 25°58' W 079°42'918.5
2018-Feb-17 02:00N 25°53' W 079°51'816.5
2018-Feb-17 01:30N 25°49' W 079°59'612.5
2018-Feb-17 01:00N 25°46' W 080°05'4 8.6
2018-Feb-17 00:30N 25°46' W 080°09'1 1.9
2018-Feb-17 00:00N 25°47' W 080°10'0 0.5
2018-Feb-16 23:27N 25°47' W 080°10'0 0.0
2018-Feb-16 23:00N 25°47' W 080°10'0 0.0
2018-Feb-16 22:30N 25°47' W 080°10'0 0.0
2018-Feb-16 22:00N 25°47' W 080°10'0 0.0
2018-Feb-16 21:30N 25°47' W 080°10'0 0.0
2018-Feb-16 21:00N 25°47' W 080°10'0 0.0
2018-Feb-16 20:30N 25°47' W 080°10'0 0.0
2018-Feb-16 20:00N 25°47' W 080°10'0 0.0
2018-Feb-16 19:30N 25°47' W 080°10'0 0.0
2018-Feb-16 19:00N 25°47' W 080°10'0 0.0
2018-Feb-16 18:30N 25°47' W 080°10'0 0.0
2018-Feb-16 18:00N 25°47' W 080°10'0 0.0
2018-Feb-16 17:30N 25°47' W 080°10'0 0.0
2018-Feb-16 17:00N 25°47' W 080°10'0 0.0
2018-Feb-16 16:30N 25°47' W 080°10'0 0.0
2018-Feb-16 16:00N 25°47' W 080°10'0 0.0
2018-Feb-16 15:30N 25°47' W 080°10'0 0.0
2018-Feb-16 15:00N 25°47' W 080°10'0 0.0
2018-Feb-16 14:30N 25°47' W 080°10'0 0.0
2018-Feb-16 13:57N 25°47' W 080°10'0 0.0
2018-Feb-16 13:30N 25°47' W 080°10'0 0.0
2018-Feb-16 13:00N 25°47' W 080°10'0 0.0
2018-Feb-16 12:31N 25°47' W 080°10'0 0.0
2018-Feb-16 12:01N 25°47' W 080°10'0 0.1
2018-Feb-16 11:31N 25°47' W 080°10'4 7.0
2018-Feb-16 11:00N 25°45' W 080°06'611.2
2018-Feb-16 10:31N 25°46' W 080°00'611.9
2018-Feb-16 10:00N 25°42' W 079°56'613.0
2018-Feb-16 09:30N 25°36' W 079°55'815.7
2018-Feb-16 09:00N 25°28' W 079°54'4816.1
2018-Feb-16 06:00N 24°42' W 080°12'20717.3 050 / 201020.810.8 22.019.025.0
2018-Feb-15 18:00N 23°12' W 083°36'11516.4 050 / 151021.810.8 25.020.724.0
2018-Feb-15 11:00N 22°06' W 085°18'8617.2 080 / 231023.510.8 24.014.620.0
2018-Feb-15 06:00N 21°06' W 086°24'3817.6 250 / 191017.8 25.020.724.0
2018-Feb-15 03:51N 20°40' W 086°53'618.4
2018-Feb-15 03:31N 20°36' W 086°58'713.4
2018-Feb-15 03:00N 20°29' W 086°59'0 0.5
2018-Feb-15 02:30N 20°29' W 086°59'0 0.0
2018-Feb-15 01:57N 20°29' W 086°59'0 0.0
2018-Feb-15 01:30N 20°29' W 086°59'0 0.0
2018-Feb-15 01:00N 20°29' W 086°59'0 0.0
2018-Feb-15 00:30N 20°29' W 086°59'0 0.0
2018-Feb-15 00:00N 20°29' W 086°59'0 0.0
2018-Feb-14 23:24N 20°29' W 086°59'0 0.0
2018-Feb-14 23:00N 20°29' W 086°59'0 0.0
2018-Feb-14 22:27N 20°29' W 086°59'0 0.0
2018-Feb-14 22:00N 20°29' W 086°59'0 0.0
2018-Feb-14 21:27N 20°29' W 086°59'0 0.0
2018-Feb-14 21:00N 20°29' W 086°59'0 0.0
2018-Feb-14 20:30N 20°29' W 086°59'0 0.0
2018-Feb-14 20:00N 20°29' W 086°59'0 0.0
2018-Feb-14 19:27N 20°29' W 086°59'0 0.0
2018-Feb-14 19:00N 20°29' W 086°59'0 0.0
2018-Feb-14 18:27N 20°29' W 086°59'0 0.0
2018-Feb-14 18:00N 20°29' W 086°59'0 0.0
2018-Feb-14 17:30N 20°29' W 086°59'0 0.0
2018-Feb-14 17:00N 20°29' W 086°59'0 0.0
2018-Feb-14 16:30N 20°29' W 086°59'1 2.4
2018-Feb-14 16:00N 20°30' W 086°59'4 8.5
2018-Feb-14 15:30N 20°34' W 086°59'16018.8
2018-Feb-14 07:00N 22°24' W 084°54'   050 / 201022.810.8 25.020.723.0
Track history (hours):
 
Tides and Currents Weather Stations Pressure Air Temp Water Temp Dewpoint Dewpoint Depression Visibility Wind Speed Wind Dir Waves Ship Positions

Carnival Victory

Operator: Carnival Cruise Lines

Last reported at 2018-Feb-24 06:00 UTC. Time now 2018-Feb-24 12:16 UTC.
Position N 26°06' W 078°18'.

Type: Passenger vessel. MMSI: 355263000.

Wind from 130 at 20 knots

Barometer 1022.8 mb
Air temperature 25.0 ° C
Visibility: greater than 10.8 NM
Dewpoint 20.7 ° C
Water temperature 26.0 ° C

Date/timePositionNaut miles runAvg speedWind from/ knotsBaromVisibWave heightAir tempDewpointWater temp
2018-Feb-24 06:00N 26°06' W 078°18'4522.4 130 / 201022.810.8 25.020.726.0
2018-Feb-24 04:00N 26°18' W 079°06'1 0.8 070 / 201025.810.8 24.019.626.0
2018-Feb-24 02:54N 26°18' W 079°07'512.7
2018-Feb-24 02:30N 26°16' W 079°12'613.1
2018-Feb-24 02:01N 26°12' W 079°18'713.7
2018-Feb-24 01:30N 26°09' W 079°24'713.8
2018-Feb-24 01:00N 26°05' W 079°31'713.9
2018-Feb-24 00:30N 26°02' W 079°38'1514.5
2018-Feb-23 23:30N 25°54' W 079°52'815.2
2018-Feb-23 23:00N 25°49' W 079°58'612.7
2018-Feb-23 22:30N 25°45' W 080°03'5 9.4
2018-Feb-23 22:00N 25°46' W 080°09'1 2.6
2018-Feb-23 21:26N 25°47' W 080°10'0 0.0
2018-Feb-23 20:59N 25°47' W 080°10'0 0.0
2018-Feb-23 20:26N 25°47' W 080°10'0 0.0
2018-Feb-23 19:59N 25°47' W 080°10'0 0.0
2018-Feb-23 19:29N 25°47' W 080°10'0 0.0
2018-Feb-23 18:59N 25°47' W 080°10'0 0.0
2018-Feb-23 18:29N 25°47' W 080°10'0 0.0
2018-Feb-23 17:59N 25°47' W 080°10'0 0.0
2018-Feb-23 17:29N 25°47' W 080°10'0 0.0
2018-Feb-23 16:59N 25°47' W 080°10'0 0.0
2018-Feb-23 16:29N 25°47' W 080°10'0 0.0
2018-Feb-23 15:56N 25°47' W 080°10'0 0.0
2018-Feb-23 15:29N 25°47' W 080°10'0 0.0
2018-Feb-23 14:59N 25°47' W 080°10'0 0.0
2018-Feb-23 14:29N 25°47' W 080°10'0 0.0
2018-Feb-23 13:59N 25°47' W 080°10'0 0.0
2018-Feb-23 13:29N 25°47' W 080°10'0 0.0
2018-Feb-23 12:56N 25°47' W 080°10'0 0.0
2018-Feb-23 12:29N 25°47' W 080°10'0 0.0
2018-Feb-23 12:00N 25°47' W 080°10'1 1.4
2018-Feb-23 11:30N 25°47' W 080°11'3 5.7
2018-Feb-23 11:00N 25°46' W 080°08'611.5
2018-Feb-23 10:31N 25°47' W 080°02'5 9.2
2018-Feb-23 10:00N 25°44' W 079°58'611.1
2018-Feb-23 09:30N 25°39' W 079°55'611.4
2018-Feb-23 09:00N 25°34' W 079°55'611.4
2018-Feb-23 08:30N 25°28' W 079°54'3422.7
2018-Feb-23 07:00N 24°54' W 080°00'6917.2 090 / 251022.810.8 23.018.524.0
2018-Feb-23 03:00N 24°06' W 080°54'5518.3 100 / 301025.8 5.4 25.020.727.0
2018-Feb-23 00:00N 23°42' W 081°48'9816.4 080 / 301022.810.8 25.020.727.0
2018-Feb-22 18:00N 23°12' W 083°30'11516.4 050 / 251021.810.8 25.020.724.0
2018-Feb-22 11:00N 22°06' W 085°12'25764.2 080 / 251021.710.8 22.019.020.0
2018-Feb-22 07:00N 26°18' W 086°06'341110.5 050 / 251021.8 5.4 25.020.726.0
2018-Feb-22 03:55N 20°40' W 086°53'818.8
2018-Feb-22 03:30N 20°35' W 086°59'612.4
2018-Feb-22 03:00N 20°29' W 086°59'0 0.0
2018-Feb-22 02:29N 20°29' W 086°59'0 0.0
2018-Feb-22 01:59N 20°29' W 086°59'0 0.0
2018-Feb-22 01:29N 20°29' W 086°59'0 0.0
2018-Feb-22 00:59N 20°29' W 086°59'0 0.0
2018-Feb-22 00:29N 20°29' W 086°59'0 0.0
2018-Feb-21 23:59N 20°29' W 086°59'0 0.0
2018-Feb-21 23:29N 20°29' W 086°59'0 0.0
2018-Feb-21 22:59N 20°29' W 086°59'0 0.0
2018-Feb-21 22:29N 20°29' W 086°59'0 0.0
2018-Feb-21 21:56N 20°29' W 086°59'0 0.0
2018-Feb-21 21:20N 20°29' W 086°59'0 0.0
2018-Feb-21 20:56N 20°29' W 086°59'0 0.0
2018-Feb-21 20:29N 20°29' W 086°59'0 0.0
2018-Feb-21 19:59N 20°29' W 086°59'0 0.0
2018-Feb-21 19:29N 20°29' W 086°59'0 0.0
2018-Feb-21 18:56N 20°29' W 086°59'0 0.0
2018-Feb-21 18:26N 20°29' W 086°59'0 0.0
2018-Feb-21 18:00N 20°29' W 086°59'0 0.0
2018-Feb-21 17:30N 20°29' W 086°59'0 0.0
2018-Feb-21 17:00N 20°29' W 086°59'0 0.0
2018-Feb-21 16:30N 20°29' W 086°59'2 4.7
2018-Feb-21 16:00N 20°31' W 086°60'510.1
2018-Feb-21 15:30N 20°36' W 086°58'8218.1
2018-Feb-21 11:00N 21°24' W 085°48'10320.5 090 / 301021.510.8 24.016.320.0
2018-Feb-21 06:00N 22°42' W 084°36'7424.6 090 / 201022.810.8 24.021.125.0
2018-Feb-21 03:00N 23°24' W 083°30'4511.3 090 / 281023.7 5.4 25.020.726.6
2018-Feb-20 23:00N 23°48' W 082°48'133 7.8 090 / 301022.710.8 26.023.227.0
2018-Feb-20 06:00N 24°30' W 080°30'3712.4 050 / 201017.810.8 24.021.124.0
2018-Feb-20 03:00N 24°48' W 079°54'2317.8 100 / 401023.7 5.4 24.021.126.0
2018-Feb-20 01:41N 25°11' W 079°50'314.0
2018-Feb-20 01:30N 25°13' W 079°50'713.7
2018-Feb-20 01:00N 25°20' W 079°48'713.6
2018-Feb-20 00:30N 25°27' W 079°48'713.6
2018-Feb-20 00:00N 25°34' W 079°48'613.0
2018-Feb-19 23:30N 25°39' W 079°51'714.6
2018-Feb-19 23:00N 25°43' W 079°58'611.8
2018-Feb-19 22:30N 25°46' W 080°04'5 9.8
2018-Feb-19 22:00N 25°46' W 080°10'0 0.7
2018-Feb-19 21:23N 25°47' W 080°10'0 0.0
2018-Feb-19 20:59N 25°47' W 080°10'0 0.0
2018-Feb-19 20:29N 25°47' W 080°10'0 0.0
2018-Feb-19 19:59N 25°47' W 080°10'0 0.0
2018-Feb-19 19:29N 25°47' W 080°10'0 0.0
2018-Feb-19 18:59N 25°47' W 080°10'0 0.0
2018-Feb-19 18:29N 25°47' W 080°10'0 0.0
2018-Feb-19 17:59N 25°47' W 080°10'0 0.0
2018-Feb-19 17:29N 25°47' W 080°10'0 0.0
2018-Feb-19 16:59N 25°47' W 080°10'0 0.0
2018-Feb-19 16:29N 25°47' W 080°10'0 0.0
2018-Feb-19 15:59N 25°47' W 080°10'0 0.1
2018-Feb-19 15:29N 25°47' W 080°10'0 0.1
2018-Feb-19 14:59N 25°47' W 080°10'0 0.0
2018-Feb-19 14:29N 25°47' W 080°10'0 0.0
2018-Feb-19 13:59N 25°47' W 080°10'0 0.0
2018-Feb-19 13:29N 25°47' W 080°10'0 0.0
2018-Feb-19 12:59N 25°47' W 080°10'0 0.0
2018-Feb-19 12:29N 25°47' W 080°10'0 0.0
2018-Feb-19 12:00N 25°47' W 080°10'1 1.6
2018-Feb-19 11:30N 25°47' W 080°11'3 5.4
2018-Feb-19 11:01N 25°46' W 080°08'5 9.7
2018-Feb-19 10:31N 25°46' W 080°03'4 7.5
2018-Feb-19 10:00N 25°48' W 079°59'4 7.6
2018-Feb-19 09:31N 25°49' W 079°55'4 8.8
2018-Feb-19 09:01N 25°51' W 079°51'5 9.3
2018-Feb-19 08:30N 25°53' W 079°46'5 9.3
2018-Feb-19 08:00N 25°55' W 079°41'5 9.2
2018-Feb-19 07:31N 25°58' W 079°37'5 9.4
2018-Feb-19 07:00N 26°02' W 079°34'4 9.3
2018-Feb-19 06:31N 26°05' W 079°32'5 9.1
2018-Feb-19 06:01N 26°09' W 079°29'6334.0
2018-Feb-19 06:00N 26°06' W 079°24'815.5 050 / 201020.810.8 22.019.024.0
2018-Feb-19 05:31N 26°13' W 079°26'5 9.6
2018-Feb-19 05:00N 26°17' W 079°23'4 8.5
2018-Feb-19 04:30N 26°19' W 079°19'1711.2
2018-Feb-19 03:00N 26°18' W 079°00'121 7.1 070 / 171020.710.8 24.021.125.0
2018-Feb-18 10:00N 25°00' W 077°18'25 1.1 060 / 81024.810.8 24.018.024.0
2018-Feb-17 12:00N 25°24' W 077°24'7712.9 020 / 201022.810.8 24.018.025.0
2018-Feb-17 06:00N 26°06' W 078°36'3021.0 150 / 201021.810.8 22.019.025.0
2018-Feb-17 04:35N 26°18' W 079°06'217.9
2018-Feb-17 04:28N 26°18' W 079°08'2656.0
2018-Feb-17 04:00N 26°00' W 079°30'17287.0 120 / 111023.7 5.4 22.019.026.0
2018-Feb-17 03:56N 26°13' W 079°17'818.5
2018-Feb-17 03:30N 26°08' W 079°25'918.8
2018-Feb-17 03:00N 26°03' W 079°34'918.5
2018-Feb-17 02:30N 25°58' W 079°42'918.5
2018-Feb-17 02:00N 25°53' W 079°51'816.5
2018-Feb-17 01:30N 25°49' W 079°59'612.5
2018-Feb-17 01:00N 25°46' W 080°05'4 8.6
2018-Feb-17 00:30N 25°46' W 080°09'1 1.9
2018-Feb-17 00:00N 25°47' W 080°10'0 0.5
2018-Feb-16 23:27N 25°47' W 080°10'0 0.0
2018-Feb-16 23:00N 25°47' W 080°10'0 0.0
2018-Feb-16 22:30N 25°47' W 080°10'0 0.0
2018-Feb-16 22:00N 25°47' W 080°10'0 0.0
2018-Feb-16 21:30N 25°47' W 080°10'0 0.0
2018-Feb-16 21:00N 25°47' W 080°10'0 0.0
2018-Feb-16 20:30N 25°47' W 080°10'0 0.0
2018-Feb-16 20:00N 25°47' W 080°10'0 0.0
2018-Feb-16 19:30N 25°47' W 080°10'0 0.0
2018-Feb-16 19:00N 25°47' W 080°10'0 0.0
2018-Feb-16 18:30N 25°47' W 080°10'0 0.0
2018-Feb-16 18:00N 25°47' W 080°10'0 0.0
2018-Feb-16 17:30N 25°47' W 080°10'0 0.0
2018-Feb-16 17:00N 25°47' W 080°10'0 0.0
2018-Feb-16 16:30N 25°47' W 080°10'0 0.0
2018-Feb-16 16:00N 25°47' W 080°10'0 0.0
2018-Feb-16 15:30N 25°47' W 080°10'0 0.0
2018-Feb-16 15:00N 25°47' W 080°10'0 0.0
2018-Feb-16 14:30N 25°47' W 080°10'0 0.0
2018-Feb-16 13:57N 25°47' W 080°10'0 0.0
2018-Feb-16 13:30N 25°47' W 080°10'0 0.0
2018-Feb-16 13:00N 25°47' W 080°10'0 0.0
2018-Feb-16 12:31N 25°47' W 080°10'0 0.0
2018-Feb-16 12:01N 25°47' W 080°10'0 0.1
2018-Feb-16 11:31N 25°47' W 080°10'4 7.0
2018-Feb-16 11:00N 25°45' W 080°06'611.2
2018-Feb-16 10:31N 25°46' W 080°00'611.9
2018-Feb-16 10:00N 25°42' W 079°56'613.0
2018-Feb-16 09:30N 25°36' W 079°55'815.7
2018-Feb-16 09:00N 25°28' W 079°54'4816.1
2018-Feb-16 06:00N 24°42' W 080°12'20717.3 050 / 201020.810.8 22.019.025.0
2018-Feb-15 18:00N 23°12' W 083°36'11516.4 050 / 151021.810.8 25.020.724.0
2018-Feb-15 11:00N 22°06' W 085°18'8617.2 080 / 231023.510.8 24.014.620.0
2018-Feb-15 06:00N 21°06' W 086°24'3817.6 250 / 191017.8 25.020.724.0
2018-Feb-15 03:51N 20°40' W 086°53'618.4
2018-Feb-15 03:31N 20°36' W 086°58'713.4
2018-Feb-15 03:00N 20°29' W 086°59'0 0.5
2018-Feb-15 02:30N 20°29' W 086°59'0 0.0
2018-Feb-15 01:57N 20°29' W 086°59'0 0.0
2018-Feb-15 01:30N 20°29' W 086°59'0 0.0
2018-Feb-15 01:00N 20°29' W 086°59'0 0.0
2018-Feb-15 00:30N 20°29' W 086°59'0 0.0
2018-Feb-15 00:00N 20°29' W 086°59'0 0.0
2018-Feb-14 23:24N 20°29' W 086°59'0 0.0
2018-Feb-14 23:00N 20°29' W 086°59'0 0.0
2018-Feb-14 22:27N 20°29' W 086°59'0 0.0
2018-Feb-14 22:00N 20°29' W 086°59'0 0.0
2018-Feb-14 21:27N 20°29' W 086°59'0 0.0
2018-Feb-14 21:00N 20°29' W 086°59'0 0.0
2018-Feb-14 20:30N 20°29' W 086°59'0 0.0
2018-Feb-14 20:00N 20°29' W 086°59'0 0.0
2018-Feb-14 19:27N 20°29' W 086°59'0 0.0
2018-Feb-14 19:00N 20°29' W 086°59'0 0.0
2018-Feb-14 18:27N 20°29' W 086°59'0 0.0
2018-Feb-14 18:00N 20°29' W 086°59'0 0.0
2018-Feb-14 17:30N 20°29' W 086°59'0 0.0
2018-Feb-14 17:00N 20°29' W 086°59'0 0.0
2018-Feb-14 16:30N 20°29' W 086°59'1 2.4
2018-Feb-14 16:00N 20°30' W 086°59'4 8.5
2018-Feb-14 15:30N 20°34' W 086°59'16018.8
2018-Feb-14 07:00N 22°24' W 084°54'   050 / 201022.810.8 25.020.723.0

Dump ship's entire track history